Front Ariake — C6RX9 — position and weather

sailwx.info

Track history (hours):
 
Tides and Currents Weather Stations Pressure Air Temp Water Temp Dewpoint Dewpoint Depression Visibility Wind Speed Wind Dir Waves Ship Positions

Front Ariake

Last reported at 2017-May-16 12:29 UTC. Time now 2017-May-22 15:23 UTC.
Position N 01°55' E 102°19'.

Length 333 m; draft 11 m.

Type: Tanker. MMSI: 311226956.

Date/timePositionNaut miles runAvg speedWind from/ knotsBaromVisibWave heightAir tempDewpointWater temp
2017-May-16 12:29N 01°55' E 102°19'611.9
2017-May-16 12:00N 01°52' E 102°24'1812.6
2017-May-16 10:33N 01°45' E 102°41'4911.8
2017-May-16 06:25N 01°17' E 103°21'510.5
2017-May-16 05:56N 01°15' E 103°25'510.6
2017-May-16 05:30N 01°13' E 103°30'611.1
2017-May-16 05:00N 01°12' E 103°35'510.8
2017-May-16 04:30N 01°11' E 103°40'510.4
2017-May-16 04:00N 01°09' E 103°45'510.7
2017-May-16 03:30N 01°12' E 103°50'4 8.4
2017-May-16 03:00N 01°14' E 103°54'1 2.5
2017-May-16 02:30N 01°15' E 103°55'0 0.1
2017-May-16 01:30N 01°15' E 103°55'0 0.0
2017-May-16 00:57N 01°15' E 103°55'0 0.0
2017-May-15 23:33N 01°15' E 103°55'0 0.0
2017-May-15 23:30N 01°15' E 103°55'0 0.0
2017-May-15 22:51N 01°15' E 103°55'0 0.0
2017-May-15 22:03N 01°15' E 103°55'0 0.1
2017-May-15 21:51N 01°15' E 103°55'0 0.0
2017-May-15 21:27N 01°15' E 103°55'0 0.0
2017-May-15 20:51N 01°15' E 103°55'0 0.1
2017-May-15 20:30N 01°15' E 103°55'0 0.0
2017-May-15 19:57N 01°15' E 103°55'0 0.0
2017-May-15 19:30N 01°15' E 103°55'0 0.1
2017-May-15 19:00N 01°15' E 103°55'0 0.2
2017-May-15 18:18N 01°15' E 103°55'0 0.4
2017-May-15 18:00N 01°15' E 103°55'0 0.2
2017-May-15 17:30N 01°15' E 103°55'0 0.1
2017-May-15 16:57N 01°14' E 103°55'0 0.0
2017-May-15 16:27N 01°14' E 103°55'0 0.0
2017-May-15 15:57N 01°14' E 103°55'0 0.0
2017-May-15 15:27N 01°14' E 103°55'0 0.0
2017-May-15 15:00N 01°14' E 103°55'0 0.0
2017-May-15 13:54N 01°14' E 103°55'0 0.0
2017-May-15 13:30N 01°14' E 103°55'0 0.0
2017-May-15 12:57N 01°14' E 103°55'0 0.0
2017-May-15 12:27N 01°14' E 103°55'0 0.0
2017-May-15 12:00N 01°14' E 103°55'0 0.0
2017-May-15 11:27N 01°14' E 103°55'0 0.1
2017-May-15 11:00N 01°14' E 103°55'0 0.1
2017-May-15 10:27N 01°14' E 103°55'0 0.2
2017-May-15 10:00N 01°14' E 103°55'0 0.2
2017-May-15 09:30N 01°14' E 103°55'0 0.2
2017-May-15 08:57N 01°14' E 103°55'0 0.2
2017-May-15 08:27N 01°15' E 103°55'0 0.1
2017-May-15 07:57N 01°15' E 103°55'0 0.1
2017-May-15 07:30N 01°15' E 103°55'0 0.1
2017-May-15 06:54N 01°15' E 103°55'0 0.0
2017-May-15 06:27N 01°15' E 103°55'0 0.1
2017-May-15 05:57N 01°15' E 103°55'0 0.2
2017-May-15 05:18N 01°14' E 103°55'0 0.1
2017-May-15 04:48N 01°14' E 103°55'0 0.0
2017-May-15 04:30N 01°14' E 103°55'0 0.2
2017-May-15 04:00N 01°15' E 103°55'0 0.4
2017-May-15 03:30N 01°15' E 103°55'0 0.2
2017-May-15 02:57N 01°15' E 103°55'1 2.5
2017-May-15 02:30N 01°16' E 103°55'3 6.0
2017-May-15 01:59N 01°16' E 103°58'2 3.2
2017-May-15 01:30N 01°16' E 103°60'3 4.9
2017-May-15 00:59N 01°16' E 104°02'  
Track history (hours):
 
Tides and Currents Weather Stations Pressure Air Temp Water Temp Dewpoint Dewpoint Depression Visibility Wind Speed Wind Dir Waves Ship Positions

Front Ariake

Last reported at 2017-May-16 12:29 UTC. Time now 2017-May-22 15:23 UTC.
Position N 01°55' E 102°19'.

Length 333 m; draft 11 m.

Type: Tanker. MMSI: 311226956.

Date/timePositionNaut miles runAvg speedWind from/ knotsBaromVisibWave heightAir tempDewpointWater temp
2017-May-16 12:29N 01°55' E 102°19'611.9
2017-May-16 12:00N 01°52' E 102°24'1812.6
2017-May-16 10:33N 01°45' E 102°41'4911.8
2017-May-16 06:25N 01°17' E 103°21'510.5
2017-May-16 05:56N 01°15' E 103°25'510.6
2017-May-16 05:30N 01°13' E 103°30'611.1
2017-May-16 05:00N 01°12' E 103°35'510.8
2017-May-16 04:30N 01°11' E 103°40'510.4
2017-May-16 04:00N 01°09' E 103°45'510.7
2017-May-16 03:30N 01°12' E 103°50'4 8.4
2017-May-16 03:00N 01°14' E 103°54'1 2.5
2017-May-16 02:30N 01°15' E 103°55'0 0.1
2017-May-16 01:30N 01°15' E 103°55'0 0.0
2017-May-16 00:57N 01°15' E 103°55'0 0.0
2017-May-15 23:33N 01°15' E 103°55'0 0.0
2017-May-15 23:30N 01°15' E 103°55'0 0.0
2017-May-15 22:51N 01°15' E 103°55'0 0.0
2017-May-15 22:03N 01°15' E 103°55'0 0.1
2017-May-15 21:51N 01°15' E 103°55'0 0.0
2017-May-15 21:27N 01°15' E 103°55'0 0.0
2017-May-15 20:51N 01°15' E 103°55'0 0.1
2017-May-15 20:30N 01°15' E 103°55'0 0.0
2017-May-15 19:57N 01°15' E 103°55'0 0.0
2017-May-15 19:30N 01°15' E 103°55'0 0.1
2017-May-15 19:00N 01°15' E 103°55'0 0.2
2017-May-15 18:18N 01°15' E 103°55'0 0.4
2017-May-15 18:00N 01°15' E 103°55'0 0.2
2017-May-15 17:30N 01°15' E 103°55'0 0.1
2017-May-15 16:57N 01°14' E 103°55'0 0.0
2017-May-15 16:27N 01°14' E 103°55'0 0.0
2017-May-15 15:57N 01°14' E 103°55'0 0.0
2017-May-15 15:27N 01°14' E 103°55'0 0.0
2017-May-15 15:00N 01°14' E 103°55'0 0.0
2017-May-15 13:54N 01°14' E 103°55'0 0.0
2017-May-15 13:30N 01°14' E 103°55'0 0.0
2017-May-15 12:57N 01°14' E 103°55'0 0.0
2017-May-15 12:27N 01°14' E 103°55'0 0.0
2017-May-15 12:00N 01°14' E 103°55'0 0.0
2017-May-15 11:27N 01°14' E 103°55'0 0.1
2017-May-15 11:00N 01°14' E 103°55'0 0.1
2017-May-15 10:27N 01°14' E 103°55'0 0.2
2017-May-15 10:00N 01°14' E 103°55'0 0.2
2017-May-15 09:30N 01°14' E 103°55'0 0.2
2017-May-15 08:57N 01°14' E 103°55'0 0.2
2017-May-15 08:27N 01°15' E 103°55'0 0.1
2017-May-15 07:57N 01°15' E 103°55'0 0.1
2017-May-15 07:30N 01°15' E 103°55'0 0.1
2017-May-15 06:54N 01°15' E 103°55'0 0.0
2017-May-15 06:27N 01°15' E 103°55'0 0.1
2017-May-15 05:57N 01°15' E 103°55'0 0.2
2017-May-15 05:18N 01°14' E 103°55'0 0.1
2017-May-15 04:48N 01°14' E 103°55'0 0.0
2017-May-15 04:30N 01°14' E 103°55'0 0.2
2017-May-15 04:00N 01°15' E 103°55'0 0.4
2017-May-15 03:30N 01°15' E 103°55'0 0.2
2017-May-15 02:57N 01°15' E 103°55'1 2.5
2017-May-15 02:30N 01°16' E 103°55'3 6.0
2017-May-15 01:59N 01°16' E 103°58'2 3.2
2017-May-15 01:30N 01°16' E 103°60'3 4.9
2017-May-15 00:59N 01°16' E 104°02'  

Dump ship's entire track history